Hauptseite
METAR-TAF:

METAR-TAF

Flughäfen :

Bahrain, Bahrain

Flughafen Bahrain

Breite: 26-16N, Länge: 050-39E, Höhe: 2 m

Beobachtung

Neuester Wetterbericht von vor 42 Minuten, um 11:30 UTC
Wind 22 kt aus Nord/Nordwest
Temperatur 36°C
Luftfeuchtigkeit 42%
Luftdruck 1000 hPa
Sichtweite: 8000 m
Himmel klar

METAR: OBBI 221130Z 33022KT 8000 SKC 36/21 Q1000 NOSIG

Zeit: 15:12 (12:12 UTC)

Prognose

Neuester Wetterbericht von vor 1 Stunde und 12 Minuten, um 11:00 UTC
Gültige Prognose vom 22 um 12 UTC bis 23 um 18 UTC
Wind 20 kt aus Nord/Nordwest
Sichtweite: 8000 m
Zeitweise
vom 22 um 12 UTC bis 22 um 15 UTC
Wind 22 kt aus Nord/Nordwest, Böen bis zu 32 kt
Sichtweite: 3000 m
Staubtreiben
Zeitweise
vom 22 um 19 UTC bis 23 um 06 UTC
Sichtweite: 5000 m
verbreitet Staub

TAF: OBBI 221100Z 2212/2318 33020KT 8000 NSC TEMPO 2212/2215 33022G32KT 3000 BLDU TEMPO 2219/2306 5000 DU

Wetterbeobachtungen und Prognosen von mehr als 4000 Flughäfen (METAR und TAF Bericht).

Die verfügbaren Stationen werden durch gelbe und rote Markierungen auf der Karte dargestellt.

Führen Sie die Maus auf sie, um den Namen der Station zu sehen.

Darauf klicken, um die Beobachtung von Wetterbeobachtungen und Prognosen zu sehen.

Um die Karte zu ändern : klicken Sie auf den grünen Tasten mit einem schwarzen Kreuz Zum Vergrößern, auf den grünen Button mit einem Gedankenstrich zu verkleinern, oder auf die grünen Pfeile für benachbarte Karten.


METAR-TAF: